Time;durP1;ratioP1;P1;durP2;ratioP2;P2;SDS_P1;SDS_P2;PMS_P1;PMS_P2;Temp;Humidity;BMP_temperature;BMP_pressure;BME280_temperature;BME280_humidity;BME280_pressure;Samples;Min_cycle;Max_cycle;Signal;HPM_P1;HPM_P2
2023/12/19 00:04:33;;;;;;;16.32;8.20;;;;;;;5.40;100.00;101127.13;4856793;58;1183738;-77
2023/12/19 00:09:40;;;;;;;17.75;7.72;;;;;;;5.40;100.00;101146.80;4786076;59;1147992;-76
2023/12/19 00:14:45;;;;;;;15.80;8.33;;;;;;;5.38;100.00;101153.89;4763255;60;1139000;-79
2023/12/19 00:19:51;;;;;;;13.07;7.70;;;;;;;5.37;100.00;101144.31;4742488;60;1169365;-77
2023/12/19 00:24:56;;;;;;;11.70;7.50;;;;;;;5.37;100.00;101135.59;4903820;58;1138863;-80
2023/12/19 00:30:02;;;;;;;16.27;8.17;;;;;;;5.34;100.00;101113.02;4968165;58;1139194;-78
2023/12/19 00:35:08;;;;;;;13.53;7.73;;;;;;;5.33;100.00;101106.52;4952214;58;1138907;-79
2023/12/19 00:40:14;;;;;;;12.53;8.27;;;;;;;5.33;100.00;101102.59;4903402;59;1138631;-75
2023/12/19 00:45:19;;;;;;;15.57;7.70;;;;;;;5.31;100.00;101122.33;4923417;59;1138837;-80
2023/12/19 00:50:25;;;;;;;16.33;8.17;;;;;;;5.29;100.00;101124.16;4901894;58;1245233;-80
2023/12/19 00:55:31;;;;;;;13.13;7.70;;;;;;;5.25;100.00;101107.71;4831896;59;1236238;-75
2023/12/19 01:00:36;;;;;;;12.63;7.73;;;;;;;5.25;100.00;101109.48;4899571;59;1238362;-80
2023/12/19 01:05:43;;;;;;;12.27;7.50;;;;;;;5.22;100.00;101106.54;4773155;59;1244373;-80
2023/12/19 01:10:48;;;;;;;12.80;8.17;;;;;;;5.23;100.00;101111.32;4752523;59;1235804;-77
2023/12/19 01:15:54;;;;;;;12.27;7.33;;;;;;;5.26;100.00;101094.99;4844843;58;1249478;-76
2023/12/19 01:21:00;;;;;;;16.00;8.33;;;;;;;5.28;100.00;101104.11;4860340;58;1242847;-77
2023/12/19 01:26:05;;;;;;;12.00;6.80;;;;;;;5.29;100.00;101110.59;4864747;58;1185265;-75
2023/12/19 01:31:11;;;;;;;10.93;6.93;;;;;;;5.26;100.00;101094.14;4953135;58;1235693;-76
2023/12/19 01:36:16;;;;;;;18.50;7.00;;;;;;;5.25;100.00;101101.16;5001247;57;1237766;-80
2023/12/19 01:41:22;;;;;;;13.27;6.83;;;;;;;5.21;100.00;101115.33;4914690;58;1237063;-77
2023/12/19 01:46:28;;;;;;;11.33;6.43;;;;;;;5.22;100.00;101092.11;4915381;57;1165260;-74
2023/12/19 01:51:33;;;;;;;10.35;6.33;;;;;;;5.24;100.00;101078.94;4913711;58;1248555;-75
2023/12/19 01:56:39;;;;;;;9.63;6.43;;;;;;;5.24;100.00;101079.78;4933428;58;1139165;-76
2023/12/19 02:01:45;;;;;;;14.60;6.40;;;;;;;5.26;100.00;101073.16;4912013;58;1170435;-77
2023/12/19 02:06:50;;;;;;;10.53;6.63;;;;;;;5.26;100.00;101077.95;4916537;58;1138877;-78
2023/12/19 02:11:56;;;;;;;13.67;7.00;;;;;;;5.30;100.00;101073.41;4934006;58;1141322;-79
2023/12/19 02:17:02;;;;;;;9.17;5.77;;;;;;;5.33;100.00;101058.86;4911570;58;1138911;-76
2023/12/19 02:22:07;;;;;;;10.97;6.20;;;;;;;5.35;100.00;101056.16;4911100;59;1136976;-77
2023/12/19 02:27:15;;;;;;;6.67;3.83;;;;;;;5.33;100.00;101056.69;4963393;58;1138799;-76
2023/12/19 02:32:20;;;;;;;9.53;4.83;;;;;;;5.33;100.00;101056.23;5008329;57;1136666;-77
2023/12/19 02:37:27;;;;;;;8.10;4.93;;;;;;;5.37;100.00;101056.45;5007986;58;1136752;-77
2023/12/19 02:42:32;;;;;;;11.17;5.40;;;;;;;5.38;100.00;101044.19;4813339;59;1136781;-79
2023/12/19 02:47:38;;;;;;;9.90;4.83;;;;;;;5.41;100.00;101034.87;5025246;58;1220743;-80
2023/12/19 02:52:44;;;;;;;10.45;4.85;;;;;;;5.42;100.00;101032.17;4816734;58;1205189;-76
2023/12/19 02:57:49;;;;;;;9.95;4.92;;;;;;;5.42;100.00;101026.93;4829165;59;1139146;-76
2023/12/19 03:02:58;;;;;;;10.23;4.37;;;;;;;5.43;100.00;101023.38;4728733;59;1137023;-77
2023/12/19 03:08:02;;;;;;;7.33;4.53;;;;;;;5.44;100.00;101016.36;4715607;59;1138908;-76
2023/12/19 03:13:08;;;;;;;8.13;4.87;;;;;;;5.47;100.00;101013.60;4737053;58;1136747;-77
2023/12/19 03:18:13;;;;;;;11.83;5.43;;;;;;;5.49;100.00;101019.63;4754653;60;1136777;-78
2023/12/19 03:23:19;;;;;;;9.87;4.90;;;;;;;5.49;100.00;101021.79;4733318;59;1138910;-77
2023/12/19 03:28:25;;;;;;;8.45;4.42;;;;;;;5.50;100.00;101021.33;4794779;60;1136693;-77
2023/12/19 03:33:32;;;;;;;8.75;5.08;;;;;;;5.48;100.00;101007.43;4885418;58;1136841;-77
2023/12/19 03:38:37;;;;;;;6.90;4.07;;;;;;;5.46;100.00;101008.81;4913358;58;1146353;-76
2023/12/19 03:43:43;;;;;;;6.67;4.45;;;;;;;5.44;100.00;101006.72;4893481;58;1136904;-79
2023/12/19 03:48:48;;;;;;;7.37;5.22;;;;;;;5.44;100.00;101012.43;4892705;58;1136821;-78
2023/12/19 03:53:54;;;;;;;11.10;5.50;;;;;;;5.40;100.00;101004.31;4911689;58;1136795;-75
2023/12/19 03:58:59;;;;;;;10.00;5.95;;;;;;;5.34;100.00;101000.70;4883116;58;1138876;-79
2023/12/19 04:04:05;;;;;;;7.63;5.23;;;;;;;5.23;100.00;101003.81;4901999;58;1138755;-80
2023/12/19 04:09:11;;;;;;;8.93;4.97;;;;;;;5.13;100.00;100996.00;4837931;60;1136652;-77
2023/12/19 04:14:17;;;;;;;7.23;4.50;;;;;;;5.07;100.00;101010.70;4898567;58;1136657;-77
2023/12/19 04:19:23;;;;;;;8.17;5.67;;;;;;;5.07;100.00;101012.01;4896165;58;1136717;-75
2023/12/19 04:24:29;;;;;;;8.40;5.40;;;;;;;5.02;100.00;100995.20;4836761;58;1136823;-79
2023/12/19 04:29:35;;;;;;;11.67;6.23;;;;;;;4.91;100.00;101002.70;4777971;60;1136926;-75
2023/12/19 04:34:41;;;;;;;7.10;5.50;;;;;;;4.80;100.00;100977.45;4670714;60;1139006;-78
2023/12/19 04:39:46;;;;;;;17.83;8.33;;;;;;;4.72;100.00;100971.28;4756822;58;1136935;-78
2023/12/19 04:44:52;;;;;;;7.50;5.63;;;;;;;4.68;100.00;100985.44;4798767;60;1139119;-80
2023/12/19 04:49:57;;;;;;;8.97;5.20;;;;;;;4.65;100.00;100980.33;4825790;59;1136634;-80
2023/12/19 04:55:03;;;;;;;8.93;5.30;;;;;;;4.64;100.00;100975.16;4826184;60;1136652;-78
2023/12/19 05:00:09;;;;;;;9.10;4.67;;;;;;;4.62;100.00;100971.29;4843326;58;1136623;-80
2023/12/19 05:05:15;;;;;;;9.27;6.33;;;;;;;4.61;100.00;100972.20;4863157;58;1136554;-73
2023/12/19 05:10:21;;;;;;;12.87;6.33;;;;;;;4.60;100.00;100970.05;4864176;58;1136320;-80
2023/12/19 05:15:27;;;;;;;9.77;5.73;;;;;;;4.60;100.00;100972.67;4842055;58;1138617;-76
2023/12/19 05:20:34;;;;;;;13.20;6.15;;;;;;;4.64;100.00;100981.24;4852365;59;1136490;-76
2023/12/19 05:25:40;;;;;;;11.00;4.33;;;;;;;4.64;100.00;100976.46;4860387;58;1138807;-76
2023/12/19 05:30:45;;;;;;;9.02;6.44;;;;;;;4.65;100.00;100968.53;4943263;58;1138828;-75
2023/12/19 05:35:51;;;;;;;9.10;5.37;;;;;;;4.71;100.00;100968.73;4922906;58;1136977;-75
2023/12/19 05:40:59;;;;;;;8.83;5.43;;;;;;;4.76;100.00;100949.69;4896441;58;1136930;-75
2023/12/19 05:46:08;;;;;;;11.10;4.93;;;;;;;4.83;100.00;100949.81;4837021;59;1136830;-76
2023/12/19 05:51:15;;;;;;;7.35;4.37;;;;;;;4.89;100.00;100940.33;4787411;60;1138541;-76
2023/12/19 05:56:20;;;;;;;10.17;5.20;;;;;;;4.94;100.00;100937.89;4796468;59;1136736;-76
2023/12/19 06:01:26;;;;;;;9.73;5.40;;;;;;;4.99;100.00;100944.23;4890017;58;1138805;-76
2023/12/19 06:06:33;;;;;;;6.60;4.50;;;;;;;5.02;100.00;100945.86;4905198;58;1137011;-76
2023/12/19 06:11:39;;;;;;;12.25;5.78;;;;;;;5.06;100.00;100953.95;4904706;58;1136966;-76
2023/12/19 06:16:46;;;;;;;10.82;6.05;;;;;;;5.09;100.00;100965.60;4891859;58;1138612;-76
2023/12/19 06:21:52;;;;;;;10.90;5.22;;;;;;;5.12;100.00;100965.00;4892273;59;1138659;-76
2023/12/19 06:26:57;;;;;;;11.50;6.15;;;;;;;5.18;100.00;100966.03;4894167;58;1138735;-76
2023/12/19 06:32:03;;;;;;;7.87;5.60;;;;;;;5.22;100.00;100967.55;4924033;58;1138651;-76
2023/12/19 06:37:08;;;;;;;9.05;5.53;;;;;;;5.27;100.00;100971.28;4902258;58;1136683;-76
2023/12/19 06:42:14;;;;;;;6.37;4.90;;;;;;;5.32;100.00;100978.47;4900751;59;1136709;-76
2023/12/19 06:47:19;;;;;;;14.33;6.10;;;;;;;5.36;100.00;100950.30;4781420;59;1136562;-76
2023/12/19 06:52:25;;;;;;;6.47;4.80;;;;;;;5.38;100.00;100934.03;4767678;59;1138562;-76
2023/12/19 06:57:31;;;;;;;6.00;4.40;;;;;;;5.41;100.00;100934.73;4836121;59;1136290;-76
2023/12/19 07:02:37;;;;;;;9.45;5.12;;;;;;;5.45;100.00;100926.25;4905028;58;1137180;-77
2023/12/19 07:07:43;;;;;;;8.90;4.78;;;;;;;5.48;100.00;100930.05;4923115;58;1136512;-76
2023/12/19 07:12:49;;;;;;;6.17;4.80;;;;;;;5.53;100.00;100946.38;4905553;58;1136765;-76
2023/12/19 07:17:54;;;;;;;9.33;5.20;;;;;;;5.57;100.00;100939.60;4905162;58;1136812;-76
2023/12/19 07:23:00;;;;;;;6.77;4.80;;;;;;;5.63;100.00;100933.20;4924867;59;1136412;-76
2023/12/19 07:28:06;;;;;;;7.20;5.40;;;;;;;5.65;100.00;100923.00;4872713;58;1136581;-76
2023/12/19 07:33:13;;;;;;;9.25;5.37;;;;;;;5.70;100.00;100920.14;4901324;59;1136536;-76
2023/12/19 07:38:19;;;;;;;8.97;6.03;;;;;;;5.72;100.00;100898.61;4919822;59;1136478;-76
2023/12/19 07:43:24;;;;;;;7.77;5.30;;;;;;;5.75;100.00;100877.47;4904750;57;1136560;-76
2023/12/19 07:48:30;;;;;;;8.53;5.43;;;;;;;5.78;100.00;100901.40;4905217;58;1136596;-76
2023/12/19 07:53:36;;;;;;;6.06;5.08;;;;;;;5.78;100.00;100888.28;4893856;59;1138524;-77
2023/12/19 07:58:43;;;;;;;6.37;4.53;;;;;;;5.81;100.00;100892.03;4767474;60;1138893;-76
2023/12/19 08:03:49;;;;;;;6.17;3.97;;;;;;;5.83;100.00;100887.09;4899989;59;1138852;-76
2023/12/19 08:08:54;;;;;;;5.78;4.10;;;;;;;5.83;100.00;100901.98;4901291;58;1136377;-76
2023/12/19 08:14:00;;;;;;;5.23;4.20;;;;;;;5.86;100.00;100879.52;4933572;58;1136740;-76
2023/12/19 08:19:05;;;;;;;5.97;4.80;;;;;;;5.87;100.00;100879.45;4827744;58;1136520;-76
2023/12/19 08:24:11;;;;;;;9.03;4.53;;;;;;;5.91;100.00;100895.46;4786120;59;1136664;-76
2023/12/19 08:29:17;;;;;;;7.57;4.40;;;;;;;5.93;100.00;100900.17;4869794;59;1136500;-76
2023/12/19 08:34:23;;;;;;;11.63;6.63;;;;;;;5.97;100.00;100883.77;4899524;58;1138527;-76
2023/12/19 08:39:29;;;;;;;7.80;4.90;;;;;;;6.02;100.00;100886.16;4888502;58;1140789;-76
2023/12/19 08:44:34;;;;;;;6.57;4.93;;;;;;;6.04;100.00;100899.59;4904826;58;1138910;-76
2023/12/19 08:49:46;;;;;;;13.05;5.10;;;;;;;6.08;100.00;100908.17;4932028;59;1136601;-76
2023/12/19 08:54:54;;;;;;;6.70;4.75;;;;;;;6.10;100.00;100881.37;4740277;60;1140953;-76
2023/12/19 09:00:00;;;;;;;6.80;4.77;;;;;;;6.12;100.00;100888.20;4740832;60;1136777;-76
2023/12/19 09:05:07;;;;;;;9.57;5.67;;;;;;;6.16;100.00;100879.25;4920124;58;1136390;-76
2023/12/19 09:10:14;;;;;;;6.43;4.73;;;;;;;6.19;100.00;100858.55;4872000;58;1136557;-76
2023/12/19 09:15:20;;;;;;;8.35;5.55;;;;;;;6.22;100.00;100853.13;4859727;59;1136753;-77
2023/12/19 09:20:26;;;;;;;8.33;4.23;;;;;;;6.30;100.00;100841.73;4909103;59;1138804;-76
2023/12/19 09:25:32;;;;;;;8.00;4.83;;;;;;;6.36;100.00;100833.52;4845888;59;1138729;-76
2023/12/19 09:30:38;;;;;;;8.43;5.10;;;;;;;6.43;100.00;100840.12;4863100;59;1138586;-78
2023/12/19 09:35:43;;;;;;;11.60;6.43;;;;;;;6.47;100.00;100812.75;4862801;58;1138469;-76
2023/12/19 09:40:49;;;;;;;13.10;6.47;;;;;;;6.54;100.00;100807.55;4843255;58;1140855;-76
2023/12/19 09:45:55;;;;;;;16.20;6.90;;;;;;;6.57;100.00;100802.09;4858914;59;1140672;-77
2023/12/19 09:51:04;;;;;;;17.77;9.53;;;;;;;6.60;100.00;100797.13;4878775;59;1140536;-77
2023/12/19 09:56:10;;;;;;;7.07;5.63;;;;;;;6.62;100.00;100780.35;4860077;59;1140469;-77
2023/12/19 10:01:20;;;;;;;8.23;5.12;;;;;;;6.64;100.00;100780.27;4860327;59;1136564;-77
2023/12/19 10:06:26;;;;;;;7.73;5.43;;;;;;;6.66;100.00;100779.72;4879612;59;1138532;-77
2023/12/19 10:11:32;;;;;;;27.57;10.50;;;;;;;6.68;100.00;100774.76;4862507;58;1138606;-77
2023/12/19 10:16:41;;;;;;;10.32;5.70;;;;;;;6.73;100.00;100765.73;4877522;59;1142731;-78
2023/12/19 10:21:49;;;;;;;12.40;6.67;;;;;;;6.76;100.00;100762.47;4876203;59;1140755;-77
2023/12/19 10:27:02;;;;;;;13.20;7.10;;;;;;;6.79;100.00;100741.73;4862123;59;1140641;-77
2023/12/19 10:32:19;;;;;;;11.87;7.47;;;;;;;6.83;100.00;100718.28;4792786;59;1140752;-77
2023/12/19 10:37:28;;;;;;;18.50;9.20;;;;;;;6.85;100.00;100701.48;4813929;59;1140680;-77
2023/12/19 10:42:33;;;;;;;24.63;12.63;;;;;;;6.89;100.00;100681.94;4863092;58;1140903;-76
2023/12/19 10:47:39;;;;;;;17.20;7.22;;;;;;;6.94;100.00;100668.53;4863991;58;1143121;-78
2023/12/19 10:52:50;;;;;;;15.60;7.47;;;;;;;6.91;100.00;100684.48;4882329;57;1148249;-78
2023/12/19 10:57:58;;;;;;;18.23;8.93;;;;;;;6.84;100.00;100670.87;4862422;59;1140839;-77
2023/12/19 11:03:28;;;;;;;22.73;11.90;;;;;;;6.78;100.00;100671.23;4889526;58;1140691;-77
2023/12/19 11:08:36;;;;;;;32.27;16.77;;;;;;;6.73;100.00;100657.50;4942367;58;1142931;-77
2023/12/19 11:13:43;;;;;;;30.33;16.37;;;;;;;6.67;100.00;100648.22;4922918;58;1142896;-78
2023/12/19 11:19:02;;;;;;;18.40;10.87;;;;;;;6.62;100.00;100652.89;4872401;58;1142742;-78
2023/12/19 11:24:17;;;;;;;19.43;9.90;;;;;;;6.55;100.00;100638.44;4948244;57;1142731;-77
2023/12/19 11:29:50;;;;;;;16.60;9.57;;;;;;;6.48;100.00;100613.45;4924015;58;1140866;-77
2023/12/19 11:35:11;;;;;;;49.00;18.43;;;;;;;6.44;100.00;100597.48;4898350;58;1140863;-77
2023/12/19 11:40:59;;;;;;;33.70;13.53;;;;;;;6.37;100.00;100575.16;4830139;58;1142969;-77
2023/12/19 11:46:17;;;;;;;42.90;16.67;;;;;;;6.35;100.00;100561.27;4899653;59;1142948;-77
2023/12/19 11:51:55;;;;;;;38.87;14.03;;;;;;;6.33;100.00;100554.78;4798108;59;1142977;-77
2023/12/19 11:57:01;;;;;;;26.48;13.22;;;;;;;6.34;100.00;100549.91;4894097;59;1142818;-77
2023/12/19 12:02:07;;;;;;;17.63;8.30;;;;;;;6.30;100.00;100560.69;4977440;57;1143200;-77
2023/12/19 12:07:12;;;;;;;14.30;8.30;;;;;;;6.26;100.00;100555.25;4931990;58;1140765;-77
2023/12/19 12:12:21;;;;;;;22.40;9.73;;;;;;;6.27;100.00;100555.60;4872831;59;1140781;-77
2023/12/19 12:17:29;;;;;;;15.43;8.33;;;;;;;6.26;100.00;100549.50;4794408;59;1140822;-76
2023/12/19 12:22:34;;;;;;;12.43;7.42;;;;;;;6.24;100.00;100546.62;4738032;58;1140803;-76
2023/12/19 12:27:40;;;;;;;9.17;7.07;;;;;;;6.17;100.00;100550.06;4766635;60;1140414;-76
2023/12/19 12:32:47;;;;;;;10.55;7.08;;;;;;;6.13;100.00;100552.48;4729946;60;1138770;-76
2023/12/19 12:38:06;;;;;;;30.77;13.20;;;;;;;6.11;100.00;100537.28;4730229;60;1140486;-76
2023/12/19 12:43:36;;;;;;;35.67;14.40;;;;;;;6.10;100.00;100517.70;4747125;60;1142739;-76
2023/12/19 12:48:53;;;;;;;72.90;23.53;;;;;;;6.10;100.00;100505.89;4730369;60;1142869;-78
2023/12/19 12:54:02;;;;;;;110.12;41.55;;;;;;;6.07;100.00;100506.06;4733413;59;1143049;-77
2023/12/19 12:59:12;;;;;;;62.00;26.27;;;;;;;6.06;100.00;100485.99;4813622;60;1144842;-76
2023/12/19 13:04:19;;;;;;;51.53;23.77;;;;;;;6.06;100.00;100473.72;4794282;60;1143113;-76
2023/12/19 13:09:28;;;;;;;27.33;14.20;;;;;;;6.05;100.00;100462.83;4794167;59;1142881;-76
2023/12/19 13:14:31;;;;;;;26.23;12.13;;;;;;;6.00;100.00;100449.97;4657053;60;1143014;-77
2023/12/19 13:19:37;;;;;;;17.03;9.73;;;;;;;5.97;100.00;100447.52;4859178;58;1142951;-76
2023/12/19 13:24:43;;;;;;;13.30;7.77;;;;;;;5.97;100.00;100439.65;4884477;59;1140890;-76
2023/12/19 13:29:48;;;;;;;12.43;7.70;;;;;;;5.96;100.00;100430.55;4903792;58;1140878;-76
2023/12/19 13:34:54;;;;;;;16.17;9.07;;;;;;;5.95;100.00;100438.08;4922648;58;1140987;-77
2023/12/19 13:40:00;;;;;;;65.47;24.90;;;;;;;5.94;100.00;100445.11;4902135;59;1140634;-76
2023/12/19 13:45:07;;;;;;;34.07;14.90;;;;;;;5.91;100.00;100447.06;4823115;58;1142737;-76
2023/12/19 13:50:12;;;;;;;39.23;17.20;;;;;;;5.88;100.00;100435.39;4840381;58;1142960;-76
2023/12/19 13:55:18;;;;;;;20.87;11.27;;;;;;;5.87;100.00;100431.92;4901556;58;1143040;-79
2023/12/19 14:00:24;;;;;;;15.57;9.50;;;;;;;5.83;100.00;100425.16;4901542;58;1142870;-73
2023/12/19 14:05:30;;;;;;;13.97;8.07;;;;;;;5.80;100.00;100418.81;4922378;57;1140399;-78
2023/12/19 14:10:35;;;;;;;15.97;9.10;;;;;;;5.80;100.00;100403.53;4819810;59;1140791;-77
2023/12/19 14:15:41;;;;;;;13.83;9.55;;;;;;;5.77;100.00;100404.55;4815361;59;1141017;-78
2023/12/19 14:20:46;;;;;;;13.43;8.50;;;;;;;5.77;100.00;100387.95;4922083;59;1148359;-78
2023/12/19 14:25:52;;;;;;;12.93;8.78;;;;;;;5.75;100.00;100382.80;4906957;58;1140960;-83
2023/12/19 14:30:59;;;;;;;18.00;8.53;;;;;;;5.73;100.00;100374.17;4918098;58;1140785;-79
2023/12/19 14:36:13;;;;;;;16.03;8.87;;;;;;;5.71;100.00;100380.44;4821716;59;1138722;-82
2023/12/19 14:41:14;;;;;;;190.73;44.60;;;;;;;5.68;100.00;100374.91;4827062;59;1138658;-79
2023/12/19 14:46:20;;;;;;;69.27;17.13;;;;;;;5.68;100.00;100384.09;4885195;58;1142912;-81
2023/12/19 14:51:25;;;;;;;12.43;6.70;;;;;;;5.69;100.00;100377.91;4867276;59;1140786;-81
2023/12/19 14:56:31;;;;;;;27.77;8.13;;;;;;;5.66;100.00;100380.70;4883972;58;1138698;-80
2023/12/19 15:01:36;;;;;;;24.50;8.37;;;;;;;5.61;100.00;100384.09;4773203;60;1138877;-81
2023/12/19 15:06:42;;;;;;;15.43;7.17;;;;;;;5.57;100.00;100362.90;4919765;58;1138674;-82
2023/12/19 15:11:48;;;;;;;22.33;8.50;;;;;;;5.51;100.00;100360.62;4904898;58;1138723;-84
2023/12/19 15:16:54;;;;;;;35.88;11.88;;;;;;;5.51;100.00;100342.27;4904278;58;1140877;-82
2023/12/19 15:22:00;;;;;;;42.75;13.05;;;;;;;5.52;100.00;100334.77;4894316;58;1143089;-79
2023/12/19 15:27:05;;;;;;;36.20;12.53;;;;;;;5.51;100.00;100331.31;4841634;59;1142867;-78
2023/12/19 15:32:11;;;;;;;22.83;10.57;;;;;;;5.50;100.00;100323.56;4863499;59;1143017;-80
2023/12/19 15:37:17;;;;;;;9.30;6.10;;;;;;;5.47;100.00;100314.55;4867792;57;1140930;-79
2023/12/19 15:42:22;;;;;;;12.00;6.50;;;;;;;5.45;100.00;100317.73;4862678;59;1136887;-79
2023/12/19 15:47:28;;;;;;;9.03;6.40;;;;;;;5.42;100.00;100308.27;4864512;58;1138694;-80
2023/12/19 15:52:34;;;;;;;7.40;4.93;;;;;;;5.43;100.00;100311.73;4857370;59;1136724;-76
2023/12/19 15:57:40;;;;;;;10.70;6.40;;;;;;;5.41;100.00;100299.17;4849557;59;1136928;-82
2023/12/19 16:02:45;;;;;;;7.57;6.43;;;;;;;5.37;100.00;100289.33;4839592;59;1138648;-81
2023/12/19 16:07:51;;;;;;;43.20;15.10;;;;;;;5.38;100.00;100284.92;4838536;58;1136641;-79
2023/12/19 16:12:56;;;;;;;8.88;6.30;;;;;;;5.37;100.00;100274.91;4873041;58;1142940;-81
2023/12/19 16:18:02;;;;;;;9.67;6.80;;;;;;;5.36;100.00;100274.99;4856555;57;1136807;-76
2023/12/19 16:23:07;;;;;;;15.03;6.93;;;;;;;5.34;100.00;100274.27;4859160;59;1136551;-78
2023/12/19 16:28:13;;;;;;;7.97;6.00;;;;;;;5.34;100.00;100241.02;4886247;58;1140849;-79
2023/12/19 16:33:20;;;;;;;12.37;6.90;;;;;;;5.35;100.00;100249.73;4876549;58;1136926;-81
2023/12/19 16:38:29;;;;;;;17.15;8.03;;;;;;;5.33;100.00;100224.91;4863252;58;1138853;-79
2023/12/19 16:43:34;;;;;;;9.60;7.07;;;;;;;5.33;100.00;100207.02;4864144;59;1138751;-80
2023/12/19 16:48:40;;;;;;;14.67;6.20;;;;;;;5.31;100.00;100224.16;4878822;59;1136592;-79
2023/12/19 16:53:46;;;;;;;8.30;5.70;;;;;;;5.29;100.00;100246.53;4825733;59;1138607;-79
2023/12/19 16:58:51;;;;;;;9.85;5.95;;;;;;;5.30;100.00;100239.52;4808589;59;1136827;-79
2023/12/19 17:04:09;;;;;;;9.63;5.77;;;;;;;5.27;100.00;100238.38;4870106;57;1136748;-81
2023/12/19 17:09:35;;;;;;;14.57;8.20;;;;;;;5.29;100.00;100238.67;4772428;60;1136607;-82
2023/12/19 17:15:00;;;;;;;12.93;8.13;;;;;;;5.30;100.00;100235.11;4876952;57;1138679;-79
2023/12/19 17:20:21;;;;;;;12.40;7.93;;;;;;;5.31;100.00;100221.53;4861899;58;1138799;-82
2023/12/19 17:25:26;;;;;;;8.33;6.83;;;;;;;5.34;100.00;100224.45;4882721;59;1138870;-80
2023/12/19 17:30:32;;;;;;;11.53;6.40;;;;;;;5.35;100.00;100215.65;4863450;59;1138754;-77
2023/12/19 17:35:38;;;;;;;10.80;6.40;;;;;;;5.36;100.00;100209.44;4853801;58;1140987;-75
2023/12/19 17:40:43;;;;;;;9.63;6.60;;;;;;;5.35;100.00;100193.36;4882750;58;1138803;-75
2023/12/19 17:45:49;;;;;;;11.63;6.70;;;;;;;5.35;100.00;100186.30;4786901;60;1136630;-77
2023/12/19 17:50:54;;;;;;;10.83;6.63;;;;;;;5.35;100.00;100186.30;4798948;59;1138596;-79
2023/12/19 17:56:00;;;;;;;16.03;10.20;;;;;;;5.33;100.00;100192.14;4859321;59;1138875;-75
2023/12/19 18:01:06;;;;;;;9.35;6.58;;;;;;;5.36;100.00;100184.52;4861442;57;1140855;-78
2023/12/19 18:06:19;;;;;;;10.37;6.90;;;;;;;5.35;100.00;100183.68;4837234;58;1136576;-78
2023/12/19 18:11:24;;;;;;;12.43;8.13;;;;;;;5.36;100.00;100181.44;4869411;58;1138814;-76
2023/12/19 18:16:30;;;;;;;11.73;7.83;;;;;;;5.36;100.00;100167.48;4800723;58;1138769;-76
2023/12/19 18:21:35;;;;;;;10.67;6.73;;;;;;;5.38;100.00;100159.05;4939010;58;1138810;-79
2023/12/19 18:26:41;;;;;;;10.33;7.00;;;;;;;5.39;100.00;100136.67;4863877;58;1138840;-79
2023/12/19 18:31:47;;;;;;;11.73;7.40;;;;;;;5.40;100.00;100132.27;4882443;59;1138847;-81
2023/12/19 18:36:52;;;;;;;13.27;7.80;;;;;;;5.40;100.00;100138.83;4864494;58;1138416;-76
2023/12/19 18:42:00;;;;;;;14.13;9.15;;;;;;;5.41;100.00;100141.36;4880168;58;1139010;-79
2023/12/19 18:47:06;;;;;;;11.73;6.67;;;;;;;5.43;100.00;100139.95;4744710;59;1138664;-79
2023/12/19 18:52:11;;;;;;;9.90;7.58;;;;;;;5.46;100.00;100134.52;4785856;59;1140879;-80
2023/12/19 18:57:17;;;;;;;15.00;7.57;;;;;;;5.44;100.00;100135.08;4729495;59;1136610;-80
2023/12/19 19:02:22;;;;;;;10.63;7.20;;;;;;;5.46;100.00;100126.19;4716090;60;1138886;-78
2023/12/19 19:07:30;;;;;;;18.03;8.10;;;;;;;5.49;100.00;100121.22;4860776;58;1138890;-79
2023/12/19 19:12:36;;;;;;;12.40;7.70;;;;;;;5.50;100.00;100110.61;4834602;59;1138813;-79
2023/12/19 19:17:41;;;;;;;9.93;7.25;;;;;;;5.50;100.00;100092.25;4859382;58;1140644;-75
2023/12/19 19:22:47;;;;;;;12.80;7.80;;;;;;;5.51;100.00;100084.75;4813130;58;1136560;-79
2023/12/19 19:27:52;;;;;;;9.13;6.77;;;;;;;5.51;100.00;100069.48;4776278;58;1138719;-80
2023/12/19 19:32:58;;;;;;;9.57;6.57;;;;;;;5.53;100.00;100063.20;4830785;58;1136756;-78
2023/12/19 19:38:04;;;;;;;7.30;6.10;;;;;;;5.55;100.00;100063.95;4866357;58;1136672;-80
2023/12/19 19:43:10;;;;;;;10.30;6.90;;;;;;;5.55;100.00;100063.95;4912552;58;1136837;-78
2023/12/19 19:48:15;;;;;;;9.63;6.35;;;;;;;5.54;100.00;100064.05;4806881;59;1138977;-81
2023/12/19 19:53:21;;;;;;;8.87;6.37;;;;;;;5.56;100.00;100060.39;4832850;59;1137106;-80
2023/12/19 19:58:27;;;;;;;11.60;6.67;;;;;;;5.57;100.00;100068.64;4814669;59;1136567;-79
2023/12/19 20:03:32;;;;;;;9.93;7.07;;;;;;;5.58;100.00;100050.65;4812687;58;1138801;-80
2023/12/19 20:08:38;;;;;;;7.35;5.60;;;;;;;5.58;100.00;100041.47;4796419;58;1136740;-76
2023/12/19 20:13:44;;;;;;;6.70;5.60;;;;;;;5.60;100.00;100047.92;4803063;59;1136718;-78
2023/12/19 20:18:50;;;;;;;10.50;6.70;;;;;;;5.61;100.00;100031.25;4815250;58;1136767;-78
2023/12/19 20:23:55;;;;;;;11.33;6.63;;;;;;;5.63;100.00;100039.87;4815641;59;1138888;-77
2023/12/19 20:29:02;;;;;;;8.65;6.62;;;;;;;5.64;100.00;100042.86;4842365;59;1140511;-78
2023/12/19 20:34:08;;;;;;;8.25;7.15;;;;;;;5.66;100.00;100040.95;4702718;59;1136425;-79
2023/12/19 20:39:14;;;;;;;8.28;6.15;;;;;;;5.68;100.00;100039.08;4764898;59;1138735;-80
2023/12/19 20:44:20;;;;;;;11.03;6.78;;;;;;;5.70;100.00;100032.42;4846381;59;1138709;-77
2023/12/19 20:49:26;;;;;;;11.50;7.33;;;;;;;5.70;100.00;100037.20;4722719;59;1141159;-79
2023/12/19 20:54:31;;;;;;;8.17;6.47;;;;;;;5.71;100.00;100027.55;4673298;60;1140973;-80
2023/12/19 20:59:37;;;;;;;9.37;7.27;;;;;;;5.71;100.00;100015.27;4705864;60;1138882;-77
2023/12/19 21:04:43;;;;;;;9.50;6.03;;;;;;;5.72;100.00;100003.84;4778105;60;1138680;-74
2023/12/19 21:09:49;;;;;;;17.43;7.37;;;;;;;5.73;100.00;99996.34;4745118;60;1138593;-79
2023/12/19 21:14:55;;;;;;;14.27;7.70;;;;;;;5.75;100.00;99989.21;4731412;60;1138757;-81
2023/12/19 21:20:00;;;;;;;11.47;6.03;;;;;;;5.76;100.00;99988.73;4721493;59;1138927;-79
2023/12/19 21:25:06;;;;;;;5.67;5.07;;;;;;;5.77;100.00;99989.11;4709877;60;1138703;-78
2023/12/19 21:30:12;;;;;;;8.28;5.55;;;;;;;5.77;100.00;99986.02;4700012;60;1136605;-80
2023/12/19 21:35:18;;;;;;;25.65;9.70;;;;;;;5.78;100.00;99981.61;4760734;60;1136692;-82
2023/12/19 21:40:23;;;;;;;17.60;8.25;;;;;;;5.79;100.00;99981.98;4664173;60;1138601;-78
2023/12/19 21:45:29;;;;;;;16.13;7.97;;;;;;;5.81;100.00;99983.53;4861957;58;1138721;-78
2023/12/19 21:50:35;;;;;;;5.60;4.97;;;;;;;5.83;100.00;99978.19;4818456;58;1138651;-81
2023/12/19 21:55:41;;;;;;;6.10;4.90;;;;;;;5.83;100.00;99971.16;4837412;58;1136720;-81
2023/12/19 22:00:46;;;;;;;5.87;5.20;;;;;;;5.82;100.00;99964.23;4818825;58;1134653;-82
2023/12/19 22:05:52;;;;;;;5.60;5.03;;;;;;;5.84;100.00;99959.72;4818916;59;1134892;-80
2023/12/19 22:10:59;;;;;;;5.03;4.27;;;;;;;5.83;100.00;99959.82;4823516;58;1134374;-77
2023/12/19 22:16:08;;;;;;;5.47;4.43;;;;;;;5.84;100.00;99951.01;4800004;60;1141143;-82
2023/12/19 22:21:24;;;;;;;7.70;5.63;;;;;;;5.85;100.00;99940.41;4783569;59;1136829;-78
2023/12/19 22:26:30;;;;;;;5.10;4.47;;;;;;;5.88;100.00;99934.13;4799256;59;1136813;-80
2023/12/19 22:31:36;;;;;;;4.40;3.33;;;;;;;5.90;100.00;99927.02;4746601;60;1137016;-78
2023/12/19 22:36:42;;;;;;;4.35;3.95;;;;;;;5.90;100.00;99925.23;4814262;60;1136909;-77
2023/12/19 22:41:48;;;;;;;4.23;3.93;;;;;;;5.89;100.00;99916.99;4846360;60;1136951;-78
2023/12/19 22:46:54;;;;;;;4.17;3.87;;;;;;;5.93;100.00;99913.70;4839410;60;1136775;-77
2023/12/19 22:51:59;;;;;;;4.03;3.40;;;;;;;5.94;100.00;99909.66;4820425;59;1136763;-75
2023/12/19 22:57:05;;;;;;;4.87;3.87;;;;;;;5.94;100.00;99913.59;4833280;59;1136581;-76
2023/12/19 23:02:10;;;;;;;3.90;3.58;;;;;;;5.93;100.00;99907.98;4814728;59;1134579;-78
2023/12/19 23:07:16;;;;;;;8.33;3.50;;;;;;;5.93;100.00;99907.14;4815577;59;1134690;-80